sensor_id;sensor_type;location;lat;lon;timestamp;P1;durP1;ratioP1;P2;durP2;ratioP2
8480;SDS011;4277;51.354;6.740;2023-04-25T00:02:03;11.73;;;4.87;;
8480;SDS011;4277;51.354;6.740;2023-04-25T00:04:29;12.93;;;5.30;;
8480;SDS011;4277;51.354;6.740;2023-04-25T00:06:55;13.20;;;5.13;;
8480;SDS011;4277;51.354;6.740;2023-04-25T00:09:21;13.13;;;5.20;;
8480;SDS011;4277;51.354;6.740;2023-04-25T00:11:47;11.63;;;5.07;;
8480;SDS011;4277;51.354;6.740;2023-04-25T00:14:13;13.17;;;4.90;;
8480;SDS011;4277;51.354;6.740;2023-04-25T00:16:39;11.90;;;5.17;;
8480;SDS011;4277;51.354;6.740;2023-04-25T00:19:06;11.03;;;5.00;;
8480;SDS011;4277;51.354;6.740;2023-04-25T00:21:32;11.10;;;5.10;;
8480;SDS011;4277;51.354;6.740;2023-04-25T00:23:58;11.63;;;4.60;;
8480;SDS011;4277;51.354;6.740;2023-04-25T00:26:25;12.93;;;4.97;;
8480;SDS011;4277;51.354;6.740;2023-04-25T00:28:51;9.53;;;4.43;;
8480;SDS011;4277;51.354;6.740;2023-04-25T00:31:17;14.07;;;5.10;;
8480;SDS011;4277;51.354;6.740;2023-04-25T00:33:43;10.40;;;4.43;;
8480;SDS011;4277;51.354;6.740;2023-04-25T00:36:09;11.17;;;4.70;;
8480;SDS011;4277;51.354;6.740;2023-04-25T00:38:35;9.80;;;4.63;;
8480;SDS011;4277;51.354;6.740;2023-04-25T00:41:03;11.37;;;4.47;;
8480;SDS011;4277;51.354;6.740;2023-04-25T00:43:29;11.10;;;4.40;;
8480;SDS011;4277;51.354;6.740;2023-04-25T00:45:55;11.10;;;4.70;;
8480;SDS011;4277;51.354;6.740;2023-04-25T00:48:22;10.20;;;4.43;;
8480;SDS011;4277;51.354;6.740;2023-04-25T00:50:52;11.57;;;4.60;;
8480;SDS011;4277;51.354;6.740;2023-04-25T00:53:22;12.97;;;4.97;;
8480;SDS011;4277;51.354;6.740;2023-04-25T00:55:48;11.53;;;3.90;;
8480;SDS011;4277;51.354;6.740;2023-04-25T00:58:15;13.53;;;4.27;;
8480;SDS011;4277;51.354;6.740;2023-04-25T01:00:41;10.00;;;4.10;;
8480;SDS011;4277;51.354;6.740;2023-04-25T01:03:07;8.33;;;4.13;;
8480;SDS011;4277;51.354;6.740;2023-04-25T01:05:34;11.73;;;4.20;;
8480;SDS011;4277;51.354;6.740;2023-04-25T01:08:00;10.00;;;4.30;;
8480;SDS011;4277;51.354;6.740;2023-04-25T01:10:26;12.10;;;3.90;;
8480;SDS011;4277;51.354;6.740;2023-04-25T01:12:52;7.10;;;3.90;;
8480;SDS011;4277;51.354;6.740;2023-04-25T01:15:18;9.37;;;4.10;;
8480;SDS011;4277;51.354;6.740;2023-04-25T01:17:45;8.90;;;4.10;;
8480;SDS011;4277;51.354;6.740;2023-04-25T01:20:11;8.13;;;3.70;;
8480;SDS011;4277;51.354;6.740;2023-04-25T01:22:37;11.27;;;4.37;;
8480;SDS011;4277;51.354;6.740;2023-04-25T01:25:04;6.57;;;3.93;;
8480;SDS011;4277;51.354;6.740;2023-04-25T01:27:30;9.90;;;4.17;;
8480;SDS011;4277;51.354;6.740;2023-04-25T01:29:56;8.87;;;4.13;;
8480;SDS011;4277;51.354;6.740;2023-04-25T01:32:22;10.00;;;4.23;;
8480;SDS011;4277;51.354;6.740;2023-04-25T01:34:49;9.60;;;4.27;;
8480;SDS011;4277;51.354;6.740;2023-04-25T01:37:16;9.97;;;4.43;;
8480;SDS011;4277;51.354;6.740;2023-04-25T01:39:42;11.47;;;4.30;;
8480;SDS011;4277;51.354;6.740;2023-04-25T01:42:08;10.13;;;4.60;;
8480;SDS011;4277;51.354;6.740;2023-04-25T01:44:34;10.57;;;4.30;;
8480;SDS011;4277;51.354;6.740;2023-04-25T01:47:00;10.17;;;4.53;;
8480;SDS011;4277;51.354;6.740;2023-04-25T01:49:26;10.33;;;4.73;;
8480;SDS011;4277;51.354;6.740;2023-04-25T01:51:52;6.70;;;4.30;;
8480;SDS011;4277;51.354;6.740;2023-04-25T01:54:18;10.70;;;4.13;;
8480;SDS011;4277;51.354;6.740;2023-04-25T01:56:49;9.20;;;4.07;;
8480;SDS011;4277;51.354;6.740;2023-04-25T01:59:16;9.43;;;4.43;;
8480;SDS011;4277;51.354;6.740;2023-04-25T02:01:42;11.73;;;4.50;;
8480;SDS011;4277;51.354;6.740;2023-04-25T02:04:08;9.17;;;4.27;;
8480;SDS011;4277;51.354;6.740;2023-04-25T02:06:34;10.30;;;4.17;;
8480;SDS011;4277;51.354;6.740;2023-04-25T02:08:59;13.27;;;4.47;;
8480;SDS011;4277;51.354;6.740;2023-04-25T02:11:25;9.87;;;4.53;;
8480;SDS011;4277;51.354;6.740;2023-04-25T02:13:51;9.80;;;4.20;;
8480;SDS011;4277;51.354;6.740;2023-04-25T02:16:17;9.73;;;4.43;;
8480;SDS011;4277;51.354;6.740;2023-04-25T02:18:43;8.83;;;4.10;;
8480;SDS011;4277;51.354;6.740;2023-04-25T02:21:09;11.40;;;4.20;;
8480;SDS011;4277;51.354;6.740;2023-04-25T02:23:36;8.17;;;4.07;;
8480;SDS011;4277;51.354;6.740;2023-04-25T02:26:02;11.00;;;4.03;;
8480;SDS011;4277;51.354;6.740;2023-04-25T02:28:28;8.50;;;4.20;;
8480;SDS011;4277;51.354;6.740;2023-04-25T02:30:56;12.00;;;4.10;;
8480;SDS011;4277;51.354;6.740;2023-04-25T02:33:22;8.10;;;3.87;;
8480;SDS011;4277;51.354;6.740;2023-04-25T02:35:48;7.50;;;3.90;;
8480;SDS011;4277;51.354;6.740;2023-04-25T02:38:14;11.00;;;4.43;;
8480;SDS011;4277;51.354;6.740;2023-04-25T02:40:40;8.23;;;3.77;;
8480;SDS011;4277;51.354;6.740;2023-04-25T02:43:06;11.57;;;4.20;;
8480;SDS011;4277;51.354;6.740;2023-04-25T02:45:32;13.77;;;4.67;;
8480;SDS011;4277;51.354;6.740;2023-04-25T02:47:58;11.47;;;3.93;;
8480;SDS011;4277;51.354;6.740;2023-04-25T02:50:23;8.40;;;4.23;;
8480;SDS011;4277;51.354;6.740;2023-04-25T02:52:49;8.70;;;4.63;;
8480;SDS011;4277;51.354;6.740;2023-04-25T02:55:15;13.10;;;4.50;;
8480;SDS011;4277;51.354;6.740;2023-04-25T02:57:41;10.27;;;4.40;;
8480;SDS011;4277;51.354;6.740;2023-04-25T03:00:07;9.30;;;4.10;;
8480;SDS011;4277;51.354;6.740;2023-04-25T03:02:33;9.40;;;4.20;;
8480;SDS011;4277;51.354;6.740;2023-04-25T03:04:59;7.43;;;4.53;;
8480;SDS011;4277;51.354;6.740;2023-04-25T03:07:25;15.90;;;4.83;;
8480;SDS011;4277;51.354;6.740;2023-04-25T03:09:51;14.90;;;5.27;;
8480;SDS011;4277;51.354;6.740;2023-04-25T03:12:17;10.57;;;4.50;;
8480;SDS011;4277;51.354;6.740;2023-04-25T03:14:43;10.77;;;5.40;;
8480;SDS011;4277;51.354;6.740;2023-04-25T03:17:09;14.87;;;7.23;;
8480;SDS011;4277;51.354;6.740;2023-04-25T03:19:35;13.90;;;5.80;;
8480;SDS011;4277;51.354;6.740;2023-04-25T03:22:01;15.03;;;6.03;;
8480;SDS011;4277;51.354;6.740;2023-04-25T03:24:27;17.77;;;6.60;;
8480;SDS011;4277;51.354;6.740;2023-04-25T03:26:53;15.20;;;7.60;;
8480;SDS011;4277;51.354;6.740;2023-04-25T03:29:19;19.47;;;7.00;;
8480;SDS011;4277;51.354;6.740;2023-04-25T03:31:49;16.27;;;6.60;;
8480;SDS011;4277;51.354;6.740;2023-04-25T03:34:15;20.40;;;7.30;;
8480;SDS011;4277;51.354;6.740;2023-04-25T03:36:41;14.90;;;6.80;;
8480;SDS011;4277;51.354;6.740;2023-04-25T03:39:07;15.53;;;6.77;;
8480;SDS011;4277;51.354;6.740;2023-04-25T03:41:33;17.60;;;6.57;;
8480;SDS011;4277;51.354;6.740;2023-04-25T03:43:59;15.67;;;6.40;;
8480;SDS011;4277;51.354;6.740;2023-04-25T03:46:25;21.40;;;6.50;;
8480;SDS011;4277;51.354;6.740;2023-04-25T03:48:51;12.77;;;5.97;;
8480;SDS011;4277;51.354;6.740;2023-04-25T03:51:17;15.53;;;5.90;;
8480;SDS011;4277;51.354;6.740;2023-04-25T03:53:42;11.00;;;5.47;;
8480;SDS011;4277;51.354;6.740;2023-04-25T03:56:08;12.90;;;5.50;;
8480;SDS011;4277;51.354;6.740;2023-04-25T03:58:34;13.93;;;5.83;;
8480;SDS011;4277;51.354;6.740;2023-04-25T04:01:00;14.93;;;5.67;;
8480;SDS011;4277;51.354;6.740;2023-04-25T04:03:32;16.47;;;6.10;;
8480;SDS011;4277;51.354;6.740;2023-04-25T04:05:58;16.90;;;5.27;;
8480;SDS011;4277;51.354;6.740;2023-04-25T04:08:24;15.67;;;6.23;;
8480;SDS011;4277;51.354;6.740;2023-04-25T04:10:50;13.67;;;6.30;;
8480;SDS011;4277;51.354;6.740;2023-04-25T04:13:16;14.93;;;6.50;;
8480;SDS011;4277;51.354;6.740;2023-04-25T04:15:42;14.97;;;6.20;;
8480;SDS011;4277;51.354;6.740;2023-04-25T04:18:08;18.00;;;6.17;;
8480;SDS011;4277;51.354;6.740;2023-04-25T04:20:33;18.90;;;7.23;;
8480;SDS011;4277;51.354;6.740;2023-04-25T04:22:59;25.23;;;7.93;;
8480;SDS011;4277;51.354;6.740;2023-04-25T04:25:26;15.63;;;7.13;;
8480;SDS011;4277;51.354;6.740;2023-04-25T04:27:52;23.43;;;7.60;;
8480;SDS011;4277;51.354;6.740;2023-04-25T04:30:21;19.53;;;7.00;;
8480;SDS011;4277;51.354;6.740;2023-04-25T04:32:49;18.00;;;7.10;;
8480;SDS011;4277;51.354;6.740;2023-04-25T04:35:15;19.67;;;7.53;;
8480;SDS011;4277;51.354;6.740;2023-04-25T04:37:41;26.30;;;11.07;;
8480;SDS011;4277;51.354;6.740;2023-04-25T04:40:07;36.20;;;12.73;;
8480;SDS011;4277;51.354;6.740;2023-04-25T04:42:33;34.07;;;12.07;;
8480;SDS011;4277;51.354;6.740;2023-04-25T04:45:01;24.90;;;12.47;;
8480;SDS011;4277;51.354;6.740;2023-04-25T04:47:27;22.67;;;8.80;;
8480;SDS011;4277;51.354;6.740;2023-04-25T04:49:57;29.17;;;8.83;;
8480;SDS011;4277;51.354;6.740;2023-04-25T04:52:23;19.03;;;8.00;;
8480;SDS011;4277;51.354;6.740;2023-04-25T04:54:49;20.43;;;6.30;;
8480;SDS011;4277;51.354;6.740;2023-04-25T04:57:15;21.40;;;6.27;;
8480;SDS011;4277;51.354;6.740;2023-04-25T04:59:41;19.53;;;6.50;;
8480;SDS011;4277;51.354;6.740;2023-04-25T05:02:07;16.50;;;6.10;;
8480;SDS011;4277;51.354;6.740;2023-04-25T05:04:33;19.77;;;6.50;;
8480;SDS011;4277;51.354;6.740;2023-04-25T05:06:59;21.50;;;7.27;;
8480;SDS011;4277;51.354;6.740;2023-04-25T05:09:26;21.20;;;8.00;;
8480;SDS011;4277;51.354;6.740;2023-04-25T05:11:52;23.80;;;7.57;;
8480;SDS011;4277;51.354;6.740;2023-04-25T05:14:18;23.57;;;8.43;;
8480;SDS011;4277;51.354;6.740;2023-04-25T05:16:44;24.33;;;7.83;;
8480;SDS011;4277;51.354;6.740;2023-04-25T05:19:09;18.93;;;7.37;;
8480;SDS011;4277;51.354;6.740;2023-04-25T05:21:35;18.50;;;7.77;;
8480;SDS011;4277;51.354;6.740;2023-04-25T05:24:01;17.80;;;6.73;;
8480;SDS011;4277;51.354;6.740;2023-04-25T05:26:27;21.30;;;8.33;;
8480;SDS011;4277;51.354;6.740;2023-04-25T05:28:56;23.10;;;7.77;;
8480;SDS011;4277;51.354;6.740;2023-04-25T05:31:22;23.50;;;8.53;;
8480;SDS011;4277;51.354;6.740;2023-04-25T05:33:48;21.97;;;7.97;;
8480;SDS011;4277;51.354;6.740;2023-04-25T05:36:14;24.10;;;7.03;;
8480;SDS011;4277;51.354;6.740;2023-04-25T05:38:40;18.03;;;7.13;;
8480;SDS011;4277;51.354;6.740;2023-04-25T05:41:05;15.43;;;6.40;;
8480;SDS011;4277;51.354;6.740;2023-04-25T05:43:32;14.17;;;5.50;;
8480;SDS011;4277;51.354;6.740;2023-04-25T05:45:58;18.10;;;5.93;;
8480;SDS011;4277;51.354;6.740;2023-04-25T05:48:24;12.23;;;5.13;;
8480;SDS011;4277;51.354;6.740;2023-04-25T05:50:50;15.47;;;5.53;;
8480;SDS011;4277;51.354;6.740;2023-04-25T05:53:16;12.33;;;4.70;;
8480;SDS011;4277;51.354;6.740;2023-04-25T05:55:42;10.77;;;4.60;;
8480;SDS011;4277;51.354;6.740;2023-04-25T05:58:08;16.37;;;4.40;;
8480;SDS011;4277;51.354;6.740;2023-04-25T06:00:34;12.63;;;4.33;;
8480;SDS011;4277;51.354;6.740;2023-04-25T06:03:00;13.57;;;4.23;;
8480;SDS011;4277;51.354;6.740;2023-04-25T06:05:27;10.63;;;3.93;;
8480;SDS011;4277;51.354;6.740;2023-04-25T06:07:53;14.00;;;5.17;;
8480;SDS011;4277;51.354;6.740;2023-04-25T06:10:19;16.93;;;4.83;;
8480;SDS011;4277;51.354;6.740;2023-04-25T06:12:44;14.63;;;4.63;;
8480;SDS011;4277;51.354;6.740;2023-04-25T06:15:10;12.37;;;4.07;;
8480;SDS011;4277;51.354;6.740;2023-04-25T06:17:36;13.17;;;4.23;;
8480;SDS011;4277;51.354;6.740;2023-04-25T06:20:02;13.03;;;3.97;;
8480;SDS011;4277;51.354;6.740;2023-04-25T06:22:29;14.00;;;4.40;;
8480;SDS011;4277;51.354;6.740;2023-04-25T06:24:55;10.13;;;4.10;;
8480;SDS011;4277;51.354;6.740;2023-04-25T06:27:23;14.60;;;3.70;;
8480;SDS011;4277;51.354;6.740;2023-04-25T06:29:50;12.87;;;4.00;;
8480;SDS011;4277;51.354;6.740;2023-04-25T06:32:15;14.90;;;3.80;;
8480;SDS011;4277;51.354;6.740;2023-04-25T06:34:43;10.77;;;3.80;;
8480;SDS011;4277;51.354;6.740;2023-04-25T06:37:09;11.30;;;3.90;;
8480;SDS011;4277;51.354;6.740;2023-04-25T06:39:35;17.10;;;4.27;;
8480;SDS011;4277;51.354;6.740;2023-04-25T06:42:01;15.87;;;4.43;;
8480;SDS011;4277;51.354;6.740;2023-04-25T06:44:27;13.97;;;3.97;;
8480;SDS011;4277;51.354;6.740;2023-04-25T06:46:54;17.43;;;4.33;;
8480;SDS011;4277;51.354;6.740;2023-04-25T06:49:20;14.80;;;3.50;;
8480;SDS011;4277;51.354;6.740;2023-04-25T06:51:46;13.90;;;4.13;;
8480;SDS011;4277;51.354;6.740;2023-04-25T06:54:12;11.20;;;3.90;;
8480;SDS011;4277;51.354;6.740;2023-04-25T06:56:38;14.40;;;3.70;;
8480;SDS011;4277;51.354;6.740;2023-04-25T06:59:04;14.33;;;4.20;;
8480;SDS011;4277;51.354;6.740;2023-04-25T07:01:30;14.17;;;4.03;;
8480;SDS011;4277;51.354;6.740;2023-04-25T07:03:56;9.17;;;3.77;;
8480;SDS011;4277;51.354;6.740;2023-04-25T07:06:22;9.53;;;3.63;;
8480;SDS011;4277;51.354;6.740;2023-04-25T07:08:47;8.10;;;3.17;;
8480;SDS011;4277;51.354;6.740;2023-04-25T07:11:13;14.20;;;3.63;;
8480;SDS011;4277;51.354;6.740;2023-04-25T07:13:39;10.93;;;3.23;;
8480;SDS011;4277;51.354;6.740;2023-04-25T07:16:05;11.77;;;3.70;;
8480;SDS011;4277;51.354;6.740;2023-04-25T07:18:31;14.10;;;3.20;;
8480;SDS011;4277;51.354;6.740;2023-04-25T07:20:57;20.80;;;4.30;;
8480;SDS011;4277;51.354;6.740;2023-04-25T07:23:23;12.43;;;3.60;;
8480;SDS011;4277;51.354;6.740;2023-04-25T07:25:49;18.03;;;3.50;;
8480;SDS011;4277;51.354;6.740;2023-04-25T07:28:15;12.77;;;3.17;;
8480;SDS011;4277;51.354;6.740;2023-04-25T07:30:41;9.23;;;3.67;;
8480;SDS011;4277;51.354;6.740;2023-04-25T07:33:07;15.43;;;5.17;;
8480;SDS011;4277;51.354;6.740;2023-04-25T07:35:33;19.13;;;7.23;;
8480;SDS011;4277;51.354;6.740;2023-04-25T07:37:59;16.43;;;6.30;;
8480;SDS011;4277;51.354;6.740;2023-04-25T07:40:25;14.90;;;5.60;;
8480;SDS011;4277;51.354;6.740;2023-04-25T07:42:51;10.53;;;3.30;;
8480;SDS011;4277;51.354;6.740;2023-04-25T07:45:17;11.33;;;3.67;;
8480;SDS011;4277;51.354;6.740;2023-04-25T07:47:43;10.23;;;3.20;;
8480;SDS011;4277;51.354;6.740;2023-04-25T07:50:09;7.30;;;2.83;;
8480;SDS011;4277;51.354;6.740;2023-04-25T07:52:35;15.60;;;3.60;;
8480;SDS011;4277;51.354;6.740;2023-04-25T07:55:01;10.27;;;3.23;;
8480;SDS011;4277;51.354;6.740;2023-04-25T07:57:28;12.10;;;3.17;;
8480;SDS011;4277;51.354;6.740;2023-04-25T07:59:55;12.03;;;3.17;;
8480;SDS011;4277;51.354;6.740;2023-04-25T08:02:21;10.63;;;3.30;;
8480;SDS011;4277;51.354;6.740;2023-04-25T08:04:47;14.27;;;3.33;;
8480;SDS011;4277;51.354;6.740;2023-04-25T08:07:14;9.57;;;3.33;;
8480;SDS011;4277;51.354;6.740;2023-04-25T08:09:40;12.70;;;3.50;;
8480;SDS011;4277;51.354;6.740;2023-04-25T08:12:06;10.87;;;3.70;;
8480;SDS011;4277;51.354;6.740;2023-04-25T08:14:32;14.47;;;4.37;;
8480;SDS011;4277;51.354;6.740;2023-04-25T08:17:01;9.37;;;3.27;;
8480;SDS011;4277;51.354;6.740;2023-04-25T08:19:28;11.03;;;3.13;;
8480;SDS011;4277;51.354;6.740;2023-04-25T08:21:55;10.43;;;3.00;;
8480;SDS011;4277;51.354;6.740;2023-04-25T08:24:21;12.63;;;3.40;;
8480;SDS011;4277;51.354;6.740;2023-04-25T08:26:47;8.47;;;2.83;;
8480;SDS011;4277;51.354;6.740;2023-04-25T08:29:13;11.90;;;2.87;;
8480;SDS011;4277;51.354;6.740;2023-04-25T08:31:39;10.80;;;3.33;;
8480;SDS011;4277;51.354;6.740;2023-04-25T08:34:05;8.47;;;3.13;;
8480;SDS011;4277;51.354;6.740;2023-04-25T08:36:31;10.33;;;2.50;;
8480;SDS011;4277;51.354;6.740;2023-04-25T08:38:57;6.90;;;2.80;;
8480;SDS011;4277;51.354;6.740;2023-04-25T08:41:24;14.90;;;3.70;;
8480;SDS011;4277;51.354;6.740;2023-04-25T08:43:50;6.40;;;3.20;;
8480;SDS011;4277;51.354;6.740;2023-04-25T08:46:18;8.43;;;2.60;;
8480;SDS011;4277;51.354;6.740;2023-04-25T08:48:44;9.57;;;3.00;;
8480;SDS011;4277;51.354;6.740;2023-04-25T08:51:13;8.53;;;2.37;;
8480;SDS011;4277;51.354;6.740;2023-04-25T08:53:41;11.63;;;2.40;;
8480;SDS011;4277;51.354;6.740;2023-04-25T08:56:08;6.87;;;2.27;;
8480;SDS011;4277;51.354;6.740;2023-04-25T08:58:34;6.90;;;2.17;;
8480;SDS011;4277;51.354;6.740;2023-04-25T09:01:01;9.67;;;1.87;;
8480;SDS011;4277;51.354;6.740;2023-04-25T09:03:27;5.67;;;1.77;;
8480;SDS011;4277;51.354;6.740;2023-04-25T09:05:53;7.93;;;1.90;;
8480;SDS011;4277;51.354;6.740;2023-04-25T09:08:19;8.23;;;1.80;;
8480;SDS011;4277;51.354;6.740;2023-04-25T09:10:45;10.03;;;2.27;;
8480;SDS011;4277;51.354;6.740;2023-04-25T09:13:12;6.63;;;2.17;;
8480;SDS011;4277;51.354;6.740;2023-04-25T09:15:49;8.67;;;2.33;;
8480;SDS011;4277;51.354;6.740;2023-04-25T09:18:25;7.87;;;2.47;;
8480;SDS011;4277;51.354;6.740;2023-04-25T09:20:52;11.67;;;2.10;;
8480;SDS011;4277;51.354;6.740;2023-04-25T09:23:19;5.03;;;2.17;;
8480;SDS011;4277;51.354;6.740;2023-04-25T09:25:47;6.10;;;2.30;;
8480;SDS011;4277;51.354;6.740;2023-04-25T09:28:13;5.30;;;1.90;;
8480;SDS011;4277;51.354;6.740;2023-04-25T09:30:39;7.57;;;2.27;;
8480;SDS011;4277;51.354;6.740;2023-04-25T09:35:35;7.87;;;1.53;;
8480;SDS011;4277;51.354;6.740;2023-04-25T09:38:01;3.33;;;1.50;;
8480;SDS011;4277;51.354;6.740;2023-04-25T09:40:28;5.03;;;1.70;;
8480;SDS011;4277;51.354;6.740;2023-04-25T09:42:55;6.90;;;2.10;;
8480;SDS011;4277;51.354;6.740;2023-04-25T09:45:21;5.93;;;1.60;;
8480;SDS011;4277;51.354;6.740;2023-04-25T09:47:47;7.27;;;2.17;;
8480;SDS011;4277;51.354;6.740;2023-04-25T09:50:15;5.90;;;1.40;;
8480;SDS011;4277;51.354;6.740;2023-04-25T09:52:42;6.60;;;1.60;;
8480;SDS011;4277;51.354;6.740;2023-04-25T09:55:08;4.37;;;1.43;;
8480;SDS011;4277;51.354;6.740;2023-04-25T09:57:34;5.33;;;1.47;;
8480;SDS011;4277;51.354;6.740;2023-04-25T10:00:04;5.67;;;1.60;;
8480;SDS011;4277;51.354;6.740;2023-04-25T10:02:34;4.83;;;1.70;;
8480;SDS011;4277;51.354;6.740;2023-04-25T10:05:00;6.87;;;1.57;;
8480;SDS011;4277;51.354;6.740;2023-04-25T10:07:29;5.27;;;2.30;;
8480;SDS011;4277;51.354;6.740;2023-04-25T10:09:59;4.73;;;1.90;;
8480;SDS011;4277;51.354;6.740;2023-04-25T10:12:27;3.70;;;1.70;;
8480;SDS011;4277;51.354;6.740;2023-04-25T10:14:54;6.47;;;2.57;;
8480;SDS011;4277;51.354;6.740;2023-04-25T10:17:20;8.20;;;2.30;;
8480;SDS011;4277;51.354;6.740;2023-04-25T10:19:49;5.23;;;1.63;;
8480;SDS011;4277;51.354;6.740;2023-04-25T10:22:20;5.33;;;1.97;;
8480;SDS011;4277;51.354;6.740;2023-04-25T10:24:49;7.47;;;2.80;;
8480;SDS011;4277;51.354;6.740;2023-04-25T10:27:15;8.37;;;2.40;;
8480;SDS011;4277;51.354;6.740;2023-04-25T10:29:41;3.43;;;1.30;;
8480;SDS011;4277;51.354;6.740;2023-04-25T10:32:10;6.10;;;2.00;;
8480;SDS011;4277;51.354;6.740;2023-04-25T10:34:40;6.67;;;1.90;;
8480;SDS011;4277;51.354;6.740;2023-04-25T10:37:08;6.47;;;2.40;;
8480;SDS011;4277;51.354;6.740;2023-04-25T10:39:34;4.57;;;1.63;;
8480;SDS011;4277;51.354;6.740;2023-04-25T10:42:01;4.93;;;1.53;;
8480;SDS011;4277;51.354;6.740;2023-04-25T10:44:27;2.67;;;1.30;;
8480;SDS011;4277;51.354;6.740;2023-04-25T10:46:57;3.33;;;1.50;;
8480;SDS011;4277;51.354;6.740;2023-04-25T10:49:57;6.90;;;2.20;;
8480;SDS011;4277;51.354;6.740;2023-04-25T10:52:25;4.47;;;1.90;;
8480;SDS011;4277;51.354;6.740;2023-04-25T10:54:53;6.03;;;1.90;;
8480;SDS011;4277;51.354;6.740;2023-04-25T10:57:26;5.63;;;1.80;;
8480;SDS011;4277;51.354;6.740;2023-04-25T10:59:54;7.67;;;1.90;;
8480;SDS011;4277;51.354;6.740;2023-04-25T11:02:20;5.70;;;2.00;;
8480;SDS011;4277;51.354;6.740;2023-04-25T11:04:46;6.53;;;1.90;;
8480;SDS011;4277;51.354;6.740;2023-04-25T11:09:57;6.90;;;2.13;;
8480;SDS011;4277;51.354;6.740;2023-04-25T11:12:26;4.93;;;1.70;;
8480;SDS011;4277;51.354;6.740;2023-04-25T11:14:58;6.00;;;1.90;;
8480;SDS011;4277;51.354;6.740;2023-04-25T11:17:24;7.93;;;2.00;;
8480;SDS011;4277;51.354;6.740;2023-04-25T11:19:50;5.07;;;1.93;;
8480;SDS011;4277;51.354;6.740;2023-04-25T11:22:16;5.07;;;2.33;;
8480;SDS011;4277;51.354;6.740;2023-04-25T11:24:42;9.57;;;3.00;;
8480;SDS011;4277;51.354;6.740;2023-04-25T11:27:08;8.83;;;3.17;;
8480;SDS011;4277;51.354;6.740;2023-04-25T11:29:34;9.50;;;3.50;;
8480;SDS011;4277;51.354;6.740;2023-04-25T11:32:00;9.33;;;2.90;;
8480;SDS011;4277;51.354;6.740;2023-04-25T11:34:27;5.43;;;2.30;;
8480;SDS011;4277;51.354;6.740;2023-04-25T11:36:55;7.23;;;2.77;;
8480;SDS011;4277;51.354;6.740;2023-04-25T11:39:23;7.40;;;2.80;;
8480;SDS011;4277;51.354;6.740;2023-04-25T11:41:49;9.70;;;3.43;;
8480;SDS011;4277;51.354;6.740;2023-04-25T11:44:16;8.97;;;2.80;;
8480;SDS011;4277;51.354;6.740;2023-04-25T11:46:42;8.47;;;3.37;;
8480;SDS011;4277;51.354;6.740;2023-04-25T11:49:09;11.43;;;3.83;;
8480;SDS011;4277;51.354;6.740;2023-04-25T11:51:41;8.77;;;3.70;;
8480;SDS011;4277;51.354;6.740;2023-04-25T11:54:08;8.97;;;3.20;;
8480;SDS011;4277;51.354;6.740;2023-04-25T11:56:34;9.17;;;2.87;;
8480;SDS011;4277;51.354;6.740;2023-04-25T11:59:01;8.63;;;2.87;;
8480;SDS011;4277;51.354;6.740;2023-04-25T12:01:31;8.30;;;2.50;;
8480;SDS011;4277;51.354;6.740;2023-04-25T12:03:57;9.00;;;2.40;;
8480;SDS011;4277;51.354;6.740;2023-04-25T12:06:27;8.17;;;2.70;;
8480;SDS011;4277;51.354;6.740;2023-04-25T12:09:00;4.80;;;2.37;;
8480;SDS011;4277;51.354;6.740;2023-04-25T12:11:26;6.83;;;2.57;;
8480;SDS011;4277;51.354;6.740;2023-04-25T12:13:52;8.43;;;2.17;;
8480;SDS011;4277;51.354;6.740;2023-04-25T12:16:18;8.97;;;2.30;;
8480;SDS011;4277;51.354;6.740;2023-04-25T12:18:44;6.37;;;2.30;;
8480;SDS011;4277;51.354;6.740;2023-04-25T12:21:10;4.97;;;2.17;;
8480;SDS011;4277;51.354;6.740;2023-04-25T12:23:38;5.33;;;2.30;;
8480;SDS011;4277;51.354;6.740;2023-04-25T12:26:04;4.10;;;1.77;;
8480;SDS011;4277;51.354;6.740;2023-04-25T12:28:32;5.10;;;1.80;;
8480;SDS011;4277;51.354;6.740;2023-04-25T12:31:02;3.93;;;1.83;;
8480;SDS011;4277;51.354;6.740;2023-04-25T12:33:30;5.20;;;1.70;;
8480;SDS011;4277;51.354;6.740;2023-04-25T12:35:56;5.57;;;2.30;;
8480;SDS011;4277;51.354;6.740;2023-04-25T12:38:35;5.37;;;2.60;;
8480;SDS011;4277;51.354;6.740;2023-04-25T12:41:01;8.50;;;2.40;;
8480;SDS011;4277;51.354;6.740;2023-04-25T12:43:27;11.33;;;4.20;;
8480;SDS011;4277;51.354;6.740;2023-04-25T12:45:53;9.93;;;2.97;;
8480;SDS011;4277;51.354;6.740;2023-04-25T12:48:20;5.93;;;2.00;;
8480;SDS011;4277;51.354;6.740;2023-04-25T12:50:46;5.83;;;2.43;;
8480;SDS011;4277;51.354;6.740;2023-04-25T12:53:18;5.53;;;1.90;;
8480;SDS011;4277;51.354;6.740;2023-04-25T12:55:45;5.33;;;2.10;;
8480;SDS011;4277;51.354;6.740;2023-04-25T12:58:12;5.33;;;2.30;;
8480;SDS011;4277;51.354;6.740;2023-04-25T13:00:38;8.23;;;2.53;;
8480;SDS011;4277;51.354;6.740;2023-04-25T13:03:04;5.63;;;2.00;;
8480;SDS011;4277;51.354;6.740;2023-04-25T13:05:30;5.67;;;2.10;;
8480;SDS011;4277;51.354;6.740;2023-04-25T13:07:56;4.90;;;2.10;;
8480;SDS011;4277;51.354;6.740;2023-04-25T13:10:22;5.27;;;1.80;;
8480;SDS011;4277;51.354;6.740;2023-04-25T13:12:48;3.83;;;1.60;;
8480;SDS011;4277;51.354;6.740;2023-04-25T13:15:14;4.13;;;1.40;;
8480;SDS011;4277;51.354;6.740;2023-04-25T13:17:40;3.50;;;1.73;;
8480;SDS011;4277;51.354;6.740;2023-04-25T13:20:06;5.37;;;2.00;;
8480;SDS011;4277;51.354;6.740;2023-04-25T13:22:34;5.03;;;1.77;;
8480;SDS011;4277;51.354;6.740;2023-04-25T13:25:02;5.93;;;1.87;;
8480;SDS011;4277;51.354;6.740;2023-04-25T13:27:28;5.40;;;2.20;;
8480;SDS011;4277;51.354;6.740;2023-04-25T13:29:54;6.73;;;2.13;;
8480;SDS011;4277;51.354;6.740;2023-04-25T13:32:20;5.90;;;1.67;;
8480;SDS011;4277;51.354;6.740;2023-04-25T13:34:46;3.77;;;1.60;;
8480;SDS011;4277;51.354;6.740;2023-04-25T13:37:12;4.20;;;1.40;;
8480;SDS011;4277;51.354;6.740;2023-04-25T13:39:38;3.87;;;1.60;;
8480;SDS011;4277;51.354;6.740;2023-04-25T13:42:03;5.97;;;1.80;;
8480;SDS011;4277;51.354;6.740;2023-04-25T13:44:30;6.93;;;1.60;;
8480;SDS011;4277;51.354;6.740;2023-04-25T13:46:56;3.73;;;1.53;;
8480;SDS011;4277;51.354;6.740;2023-04-25T13:49:22;6.57;;;1.77;;
8480;SDS011;4277;51.354;6.740;2023-04-25T13:51:48;7.43;;;2.50;;
8480;SDS011;4277;51.354;6.740;2023-04-25T13:54:13;7.83;;;2.50;;
8480;SDS011;4277;51.354;6.740;2023-04-25T13:56:40;7.20;;;2.00;;
8480;SDS011;4277;51.354;6.740;2023-04-25T13:59:07;5.10;;;1.73;;
8480;SDS011;4277;51.354;6.740;2023-04-25T14:01:33;4.73;;;1.70;;
8480;SDS011;4277;51.354;6.740;2023-04-25T14:04:00;5.90;;;2.30;;
8480;SDS011;4277;51.354;6.740;2023-04-25T14:06:26;4.70;;;2.00;;
8480;SDS011;4277;51.354;6.740;2023-04-25T14:08:53;5.73;;;2.00;;
8480;SDS011;4277;51.354;6.740;2023-04-25T14:11:19;7.33;;;1.80;;
8480;SDS011;4277;51.354;6.740;2023-04-25T14:13:45;11.03;;;2.33;;
8480;SDS011;4277;51.354;6.740;2023-04-25T14:16:12;5.70;;;1.90;;
8480;SDS011;4277;51.354;6.740;2023-04-25T14:18:38;5.50;;;2.40;;
8480;SDS011;4277;51.354;6.740;2023-04-25T14:21:04;4.97;;;2.40;;
8480;SDS011;4277;51.354;6.740;2023-04-25T14:23:30;8.03;;;2.47;;
8480;SDS011;4277;51.354;6.740;2023-04-25T14:25:56;8.83;;;2.67;;
8480;SDS011;4277;51.354;6.740;2023-04-25T14:28:22;5.30;;;1.90;;
8480;SDS011;4277;51.354;6.740;2023-04-25T14:30:48;5.83;;;1.50;;
8480;SDS011;4277;51.354;6.740;2023-04-25T14:33:14;7.60;;;2.00;;
8480;SDS011;4277;51.354;6.740;2023-04-25T14:35:40;9.57;;;2.80;;
8480;SDS011;4277;51.354;6.740;2023-04-25T14:38:06;9.60;;;2.30;;
8480;SDS011;4277;51.354;6.740;2023-04-25T14:40:32;8.73;;;2.40;;
8480;SDS011;4277;51.354;6.740;2023-04-25T14:42:58;4.10;;;1.90;;
8480;SDS011;4277;51.354;6.740;2023-04-25T14:45:24;5.53;;;1.83;;
8480;SDS011;4277;51.354;6.740;2023-04-25T14:47:50;5.10;;;1.80;;
8480;SDS011;4277;51.354;6.740;2023-04-25T14:50:16;4.53;;;2.10;;
8480;SDS011;4277;51.354;6.740;2023-04-25T14:52:42;7.10;;;1.87;;
8480;SDS011;4277;51.354;6.740;2023-04-25T14:55:09;6.03;;;1.93;;
8480;SDS011;4277;51.354;6.740;2023-04-25T14:57:36;8.10;;;3.07;;
8480;SDS011;4277;51.354;6.740;2023-04-25T15:00:02;6.80;;;1.83;;
8480;SDS011;4277;51.354;6.740;2023-04-25T15:02:31;5.00;;;1.30;;
8480;SDS011;4277;51.354;6.740;2023-04-25T15:04:57;4.47;;;1.60;;
8480;SDS011;4277;51.354;6.740;2023-04-25T15:07:23;65.03;;;49.80;;
8480;SDS011;4277;51.354;6.740;2023-04-25T15:09:49;4.67;;;1.97;;